Time;durP1;ratioP1;P1;durP2;ratioP2;P2;SDS_P1;SDS_P2;PMS_P1;PMS_P2;Temp;Humidity;BMP_temperature;BMP_pressure;BME280_temperature;BME280_humidity;BME280_pressure;Samples;Min_cycle;Max_cycle;Signal;HPM_P1;HPM_P2
2022/05/07 00:01:00;;;;;;;24.45;18.95;;;11.20;99.90;;;;;;5116968;28;20173;-68
2022/05/07 00:03:26;;;;;;;24.67;18.60;;;11.20;99.90;;;;;;5116879;28;20191;-66
2022/05/07 00:05:52;;;;;;;24.63;19.00;;;11.10;99.90;;;;;;5116757;28;20199;-66
2022/05/07 00:08:17;;;;;;;28.13;20.47;;;11.10;99.90;;;;;;5116774;28;20227;-66
2022/05/07 00:10:43;;;;;;;23.67;18.80;;;11.10;99.90;;;;;;5097873;28;20180;-66
2022/05/07 00:13:09;;;;;;;24.00;18.57;;;11.10;99.90;;;;;;5097410;28;20204;-66
2022/05/07 00:15:35;;;;;;;22.37;18.30;;;11.10;99.90;;;;;;5116746;28;20665;-66
2022/05/07 00:18:10;;;;;;;24.70;19.20;;;11.10;99.90;;;;;;5098285;28;20178;-66
2022/05/07 00:20:38;;;;;;;27.60;19.80;;;11.00;99.90;;;;;;5116785;28;20186;-66
2022/05/07 00:23:03;;;;;;;25.03;19.13;;;11.00;99.90;;;;;;5116807;28;20179;-66
2022/05/07 00:25:30;;;;;;;25.77;20.10;;;11.00;99.90;;;;;;5098127;28;20196;-66
2022/05/07 00:27:55;;;;;;;25.20;19.73;;;11.00;99.90;;;;;;5116587;28;20597;-66
2022/05/07 00:30:21;;;;;;;25.00;18.87;;;11.00;99.90;;;;;;5116194;28;20165;-66
2022/05/07 00:32:47;;;;;;;24.97;18.80;;;11.00;99.90;;;;;;5116442;28;20188;-66
2022/05/07 00:35:13;;;;;;;22.73;19.33;;;10.90;99.90;;;;;;5116069;28;20196;-66
2022/05/07 00:37:39;;;;;;;23.13;19.20;;;10.90;99.90;;;;;;5115998;28;20180;-66
2022/05/07 00:40:06;;;;;;;23.30;18.93;;;10.80;99.90;;;;;;5116225;28;20181;-66
2022/05/07 00:42:32;;;;;;;24.57;19.03;;;10.70;99.90;;;;;;5116069;28;20301;-66
2022/05/07 00:44:57;;;;;;;28.00;20.73;;;10.80;99.90;;;;;;5114545;28;20204;-66
2022/05/07 00:47:28;;;;;;;25.87;19.90;;;10.70;99.90;;;;;;5116038;28;20716;-66
2022/05/07 00:51:33;;;;;;;23.70;19.30;;;10.60;99.90;;;;;;5097565;28;20554;-66
2022/05/07 00:52:42;;;;;;;24.80;19.17;;;10.40;99.90;;;;;;5115831;28;20184;-66
2022/05/07 00:55:10;;;;;;;24.13;19.40;;;10.40;99.90;;;;;;5097558;28;20253;-66
2022/05/07 00:57:36;;;;;;;22.37;19.70;;;10.40;99.90;;;;;;5115929;28;20533;-66
2022/05/07 01:00:03;;;;;;;27.13;19.87;;;10.40;99.90;;;;;;5115671;28;20195;-66
2022/05/07 01:02:29;;;;;;;30.37;19.90;;;10.50;99.90;;;;;;5115862;28;20182;-66
2022/05/07 01:04:54;;;;;;;27.13;19.77;;;10.30;99.90;;;;;;5097828;28;20196;-66
2022/05/07 01:07:21;;;;;;;24.93;19.73;;;10.30;99.90;;;;;;5115769;28;20188;-66
2022/05/07 01:09:48;;;;;;;23.57;19.43;;;10.10;99.90;;;;;;5115662;28;20188;-66
2022/05/07 01:12:15;;;;;;;25.50;19.53;;;10.10;99.90;;;;;;5115513;28;20180;-67
2022/05/07 01:14:40;;;;;;;26.90;20.17;;;10.20;99.90;;;;;;5115129;28;20255;-66
2022/05/07 01:17:07;;;;;;;23.07;19.03;;;10.30;99.90;;;;;;5115467;28;20261;-66
2022/05/07 01:19:33;;;;;;;25.33;18.37;;;10.20;99.90;;;;;;5115704;28;20172;-66
2022/05/07 01:21:58;;;;;;;24.37;18.93;;;10.20;99.90;;;;;;5115638;28;20176;-66
2022/05/07 01:24:24;;;;;;;25.90;20.13;;;10.20;99.90;;;;;;5096854;28;20228;-66
2022/05/07 01:26:50;;;;;;;26.50;19.60;;;10.20;99.90;;;;;;5115782;28;20259;-66
2022/05/07 01:29:16;;;;;;;23.33;19.00;;;10.20;99.90;;;;;;5115561;28;20177;-66
2022/05/07 01:31:41;;;;;;;30.57;19.47;;;10.20;99.90;;;;;;5115879;28;20204;-66
2022/05/07 01:34:07;;;;;;;28.47;18.30;;;10.20;99.90;;;;;;5115651;28;20168;-66
2022/05/07 01:36:32;;;;;;;24.43;18.80;;;10.30;99.90;;;;;;5114949;28;20204;-66
2022/05/07 01:38:58;;;;;;;22.80;18.03;;;10.20;99.90;;;;;;5115063;28;20746;-66
2022/05/07 01:41:24;;;;;;;26.93;18.87;;;10.30;99.90;;;;;;5115050;28;20202;-66
2022/05/07 01:43:50;;;;;;;26.00;19.63;;;10.20;99.90;;;;;;5096361;28;20230;-66
2022/05/07 01:49:00;;;;;;;24.60;18.73;;;10.20;99.90;;;;;;5115013;28;20235;-66
2022/05/07 01:51:26;;;;;;;26.70;19.17;;;10.10;99.90;;;;;;5115027;28;20229;-66
2022/05/07 01:53:51;;;;;;;23.43;18.87;;;10.10;99.90;;;;;;5096390;28;20188;-66
2022/05/07 01:56:17;;;;;;;26.63;18.90;;;10.00;99.90;;;;;;5114795;28;20208;-66
2022/05/07 01:58:44;;;;;;;28.63;19.70;;;10.00;99.90;;;;;;5115022;28;20187;-66
2022/05/07 02:01:10;;;;;;;28.03;20.23;;;10.00;99.90;;;;;;5114832;28;20176;-66
2022/05/07 02:03:38;;;;;;;25.13;19.53;;;9.90;99.90;;;;;;5114875;28;20187;-66
2022/05/07 02:06:03;;;;;;;28.63;20.40;;;10.00;99.90;;;;;;5114878;28;20563;-66
2022/05/07 02:08:29;;;;;;;26.00;18.67;;;10.00;99.90;;;;;;5114749;28;20247;-66
2022/05/07 02:10:55;;;;;;;26.87;19.87;;;10.10;99.90;;;;;;5096558;28;20233;-66
2022/05/07 02:13:20;;;;;;;27.20;18.57;;;10.00;99.90;;;;;;5114667;28;20191;-67
2022/05/07 02:15:46;;;;;;;23.13;18.77;;;10.00;99.90;;;;;;5114433;28;20299;-66
2022/05/07 02:18:11;;;;;;;24.77;20.03;;;9.90;99.90;;;;;;5114927;28;20176;-66
2022/05/07 02:20:37;;;;;;;25.60;20.40;;;9.80;99.90;;;;;;5114838;28;20664;-66
2022/05/07 02:23:03;;;;;;;27.80;20.33;;;9.70;99.90;;;;;;5115161;28;20165;-66
2022/05/07 02:25:28;;;;;;;29.03;21.70;;;9.80;99.90;;;;;;5114725;28;20211;-67
2022/05/07 02:27:54;;;;;;;23.20;19.10;;;9.80;99.90;;;;;;5115077;28;20245;-68
2022/05/07 02:30:20;;;;;;;25.87;18.80;;;9.70;99.90;;;;;;5114558;28;20164;-68
2022/05/07 02:32:47;;;;;;;26.30;20.97;;;9.60;99.90;;;;;;5096206;28;20172;-68
2022/05/07 02:35:13;;;;;;;26.70;20.23;;;9.60;99.90;;;;;;5113684;28;20184;-68
2022/05/07 02:37:39;;;;;;;26.87;21.33;;;9.70;99.90;;;;;;5096125;28;20613;-68
2022/05/07 02:40:05;;;;;;;28.97;20.87;;;9.60;99.90;;;;;;5114622;28;20161;-68
2022/05/07 02:42:34;;;;;;;29.20;20.77;;;9.60;99.90;;;;;;5114492;28;20176;-68
2022/05/07 02:45:01;;;;;;;26.53;21.53;;;9.60;99.90;;;;;;5114243;28;20666;-68
2022/05/07 02:47:28;;;;;;;28.47;21.60;;;9.50;99.90;;;;;;5096508;28;20177;-68
2022/05/07 02:49:54;;;;;;;29.37;20.60;;;9.60;99.90;;;;;;5114321;28;20250;-68
2022/05/07 02:52:19;;;;;;;26.53;20.43;;;9.50;99.90;;;;;;5096179;28;20641;-68
2022/05/07 02:54:45;;;;;;;26.20;20.47;;;9.50;99.90;;;;;;5114525;28;20195;-68
2022/05/07 02:57:11;;;;;;;28.53;22.57;;;9.60;99.90;;;;;;5115381;28;20216;-68
2022/05/07 02:59:38;;;;;;;27.93;21.20;;;9.60;99.90;;;;;;5114268;28;20215;-68
2022/05/07 03:02:04;;;;;;;28.70;21.53;;;9.50;99.90;;;;;;5096148;28;20180;-68
2022/05/07 03:04:30;;;;;;;26.13;20.20;;;9.50;99.90;;;;;;5114161;28;20208;-70
2022/05/07 03:06:55;;;;;;;28.67;21.50;;;9.50;99.90;;;;;;5114073;28;20168;-68
2022/05/07 03:09:21;;;;;;;28.37;21.47;;;9.60;99.90;;;;;;5113935;28;20181;-68
2022/05/07 03:11:47;;;;;;;28.80;20.40;;;9.60;99.90;;;;;;5114411;28;20176;-68
2022/05/07 03:14:13;;;;;;;28.83;21.77;;;9.50;99.90;;;;;;5113711;28;20256;-68
2022/05/07 03:16:38;;;;;;;32.27;20.77;;;9.50;99.90;;;;;;5114173;28;20196;-68
2022/05/07 03:19:05;;;;;;;26.47;19.97;;;9.40;99.90;;;;;;5114431;28;20570;-68
2022/05/07 03:21:31;;;;;;;22.90;17.93;;;9.30;99.90;;;;;;5114300;28;20161;-68
2022/05/07 03:23:56;;;;;;;21.60;17.97;;;9.10;99.90;;;;;;5114310;28;20531;-68
2022/05/07 03:26:22;;;;;;;25.10;17.87;;;8.80;99.90;;;;;;5113963;28;20192;-68
2022/05/07 03:28:48;;;;;;;22.83;18.10;;;8.70;99.90;;;;;;5114425;28;20184;-68
2022/05/07 03:31:15;;;;;;;26.17;18.67;;;8.70;99.90;;;;;;5114844;28;20183;-68
2022/05/07 03:33:40;;;;;;;25.13;19.67;;;8.50;99.90;;;;;;5115302;28;20229;-68
2022/05/07 03:36:06;;;;;;;25.80;19.53;;;8.40;99.90;;;;;;5096734;28;20235;-68
2022/05/07 03:38:32;;;;;;;22.93;18.50;;;8.40;99.90;;;;;;5097316;28;20180;-68
2022/05/07 03:40:58;;;;;;;24.70;19.40;;;8.50;99.90;;;;;;5096213;28;20188;-68
2022/05/07 03:43:23;;;;;;;26.03;19.70;;;8.60;99.90;;;;;;5095664;28;20268;-68
2022/05/07 03:45:49;;;;;;;25.07;20.40;;;8.70;99.90;;;;;;5096325;28;20245;-68
2022/05/07 03:48:16;;;;;;;26.60;19.63;;;8.70;99.90;;;;;;5117595;28;20176;-68
2022/05/07 03:50:42;;;;;;;25.80;19.90;;;8.80;99.90;;;;;;5117569;28;20168;-68
2022/05/07 03:55:51;;;;;;;25.73;19.40;;;8.80;99.90;;;;;;5117401;28;20238;-68
2022/05/07 03:58:17;;;;;;;26.53;20.30;;;8.80;99.90;;;;;;5117067;28;20216;-68
2022/05/07 04:00:44;;;;;;;26.47;20.50;;;8.90;99.90;;;;;;5098580;28;20649;-68
2022/05/07 04:03:11;;;;;;;26.53;20.90;;;8.90;99.90;;;;;;5117090;28;20191;-68
2022/05/07 04:05:38;;;;;;;25.77;20.50;;;9.00;99.90;;;;;;5098714;28;20631;-68
2022/05/07 04:08:04;;;;;;;25.57;19.23;;;9.00;99.90;;;;;;5098761;28;20188;-68
2022/05/07 04:10:29;;;;;;;24.80;20.07;;;9.00;99.90;;;;;;5116833;28;20655;-68
2022/05/07 04:12:55;;;;;;;28.10;21.37;;;9.00;99.90;;;;;;5098281;28;20184;-68
2022/05/07 04:15:22;;;;;;;29.27;20.43;;;9.00;99.90;;;;;;5116484;28;20189;-68
2022/05/07 04:17:48;;;;;;;28.43;20.87;;;9.00;99.90;;;;;;5117000;28;20641;-68
2022/05/07 04:20:14;;;;;;;26.63;19.80;;;9.10;99.90;;;;;;5098359;28;20216;-69
2022/05/07 04:22:40;;;;;;;24.83;20.27;;;9.10;99.90;;;;;;5116738;28;20169;-68
2022/05/07 04:25:07;;;;;;;25.93;20.83;;;9.20;99.90;;;;;;5116594;28;20196;-68
2022/05/07 04:27:33;;;;;;;25.87;20.20;;;9.20;99.90;;;;;;5116378;28;20169;-68
2022/05/07 04:29:59;;;;;;;26.57;21.43;;;9.30;99.90;;;;;;5097995;28;20203;-68
2022/05/07 04:32:25;;;;;;;28.73;21.43;;;9.30;99.90;;;;;;5116590;28;20538;-68
2022/05/07 04:34:51;;;;;;;27.50;21.57;;;9.30;99.90;;;;;;5116309;28;20333;-68
2022/05/07 04:37:17;;;;;;;27.50;21.77;;;9.30;99.90;;;;;;5097839;28;20196;-68
2022/05/07 04:39:43;;;;;;;31.60;22.30;;;9.40;99.90;;;;;;5095139;28;20188;-68
2022/05/07 04:42:09;;;;;;;27.43;22.00;;;9.40;99.90;;;;;;5095816;28;20544;-68
2022/05/07 04:44:35;;;;;;;31.30;20.87;;;9.30;99.90;;;;;;5095515;28;20606;-68
2022/05/07 04:47:01;;;;;;;31.13;23.20;;;9.40;99.90;;;;;;5095539;28;20574;-68
2022/05/07 04:49:26;;;;;;;29.93;21.57;;;9.50;99.90;;;;;;5077426;28;20177;-68
2022/05/07 04:51:52;;;;;;;27.77;20.17;;;9.50;99.90;;;;;;5095665;28;20248;-68
2022/05/07 04:54:22;;;;;;;30.13;23.97;;;9.60;99.90;;;;;;5095421;28;20177;-68
2022/05/07 04:56:50;;;;;;;24.70;20.07;;;9.70;99.90;;;;;;5077088;28;20200;-68
2022/05/07 04:59:17;;;;;;;30.00;21.47;;;9.70;99.90;;;;;;5076894;28;20193;-68
2022/05/07 05:01:43;;;;;;;24.87;20.10;;;9.70;99.90;;;;;;5095333;28;20173;-68
2022/05/07 05:04:09;;;;;;;26.87;21.37;;;9.70;99.90;;;;;;5095147;28;20626;-68
2022/05/07 05:06:35;;;;;;;25.87;20.47;;;9.80;99.90;;;;;;5077037;28;20177;-67
2022/05/07 05:09:01;;;;;;;26.00;21.27;;;9.80;99.90;;;;;;5108910;28;20181;-67
2022/05/07 05:11:26;;;;;;;29.77;20.57;;;9.80;99.90;;;;;;5115429;28;20664;-67
2022/05/07 05:13:52;;;;;;;24.20;19.93;;;9.90;99.90;;;;;;5115271;28;20188;-67
2022/05/07 05:16:18;;;;;;;23.63;19.00;;;10.00;99.90;;;;;;5115239;28;20208;-67
2022/05/07 05:18:44;;;;;;;24.70;20.90;;;10.10;99.90;;;;;;5115215;28;20179;-67
2022/05/07 05:21:10;;;;;;;28.70;20.90;;;10.20;99.90;;;;;;5115210;28;20171;-67
2022/05/07 05:23:35;;;;;;;23.37;19.57;;;10.30;99.90;;;;;;5115194;28;20177;-68
2022/05/07 05:26:01;;;;;;;27.73;20.77;;;10.30;99.90;;;;;;5114953;28;20196;-68
2022/05/07 05:28:27;;;;;;;24.70;19.60;;;10.30;99.90;;;;;;5096888;28;20180;-68
2022/05/07 05:30:53;;;;;;;24.53;20.10;;;10.30;99.90;;;;;;5096704;28;20176;-68
2022/05/07 05:33:19;;;;;;;28.47;20.60;;;10.50;99.90;;;;;;5096892;28;20185;-68
2022/05/07 05:35:45;;;;;;;24.67;20.03;;;10.50;99.90;;;;;;5115136;28;20564;-68
2022/05/07 05:38:11;;;;;;;24.10;19.47;;;10.50;99.90;;;;;;5115103;28;20180;-68
2022/05/07 05:40:37;;;;;;;23.53;19.63;;;10.60;99.90;;;;;;5114917;28;20245;-68
2022/05/07 05:43:03;;;;;;;28.67;20.03;;;10.60;99.90;;;;;;5096632;28;20207;-68
2022/05/07 05:45:28;;;;;;;25.20;20.70;;;10.60;99.90;;;;;;5096336;28;20199;-68
2022/05/07 05:47:54;;;;;;;26.77;21.60;;;10.60;99.90;;;;;;5096464;28;20179;-68
2022/05/07 05:50:20;;;;;;;22.97;19.53;;;10.60;99.90;;;;;;5115119;28;20153;-67
2022/05/07 05:52:46;;;;;;;24.77;20.17;;;10.60;99.90;;;;;;5115113;28;20644;-68
2022/05/07 05:55:12;;;;;;;25.00;19.03;;;10.70;99.90;;;;;;5114586;28;20660;-68
2022/05/07 05:57:38;;;;;;;24.57;20.10;;;10.70;99.90;;;;;;5115070;28;20741;-68
2022/05/07 06:00:07;;;;;;;25.23;19.50;;;10.70;99.90;;;;;;5114364;28;20150;-66
2022/05/07 06:02:33;;;;;;;26.20;21.33;;;10.80;99.90;;;;;;5114951;28;20245;-66
2022/05/07 06:04:59;;;;;;;25.30;20.10;;;10.90;99.90;;;;;;5114340;28;20188;-66
2022/05/07 06:07:25;;;;;;;23.53;19.53;;;11.00;99.90;;;;;;5114246;28;20598;-67
2022/05/07 06:09:51;;;;;;;25.23;20.63;;;11.20;99.90;;;;;;5113418;28;20200;-67
2022/05/07 06:12:17;;;;;;;23.90;20.10;;;11.30;99.90;;;;;;5114208;28;20164;-68
2022/05/07 06:14:43;;;;;;;24.33;19.70;;;11.30;99.90;;;;;;5113912;28;20214;-67
2022/05/07 06:17:08;;;;;;;30.33;19.70;;;11.50;99.90;;;;;;5096122;28;20756;-67
2022/05/07 06:19:34;;;;;;;26.80;21.43;;;11.60;99.90;;;;;;5114513;28;20163;-67
2022/05/07 06:22:00;;;;;;;25.63;20.27;;;11.70;99.90;;;;;;5114648;28;20207;-65
2022/05/07 06:27:28;;;;;;;24.47;19.47;;;11.90;99.90;;;;;;5115372;28;20175;-67
2022/05/07 06:29:56;;;;;;;25.35;18.85;;;12.00;99.90;;;;;;5114267;28;20574;-67
2022/05/07 06:32:23;;;;;;;26.52;20.77;;;12.10;99.90;;;;;;5114540;28;20157;-69
2022/05/07 06:34:49;;;;;;;22.13;17.52;;;12.20;99.90;;;;;;5095774;28;20200;-68
2022/05/07 06:37:15;;;;;;;27.35;20.58;;;12.40;99.90;;;;;;5113918;28;20244;-68
2022/05/07 06:39:41;;;;;;;24.10;19.80;;;12.40;99.90;;;;;;5113740;28;20177;-68
2022/05/07 06:42:07;;;;;;;23.63;18.85;;;12.50;99.90;;;;;;5114252;28;20179;-68
2022/05/07 06:44:33;;;;;;;24.00;18.67;;;12.70;99.90;;;;;;5095829;28;20196;-67
2022/05/07 06:46:59;;;;;;;22.70;18.35;;;12.80;99.90;;;;;;5113882;28;20532;-67
2022/05/07 06:49:25;;;;;;;26.48;19.35;;;13.00;99.90;;;;;;5113730;28;20196;-67
2022/05/07 06:51:51;;;;;;;24.08;19.73;;;13.00;99.90;;;;;;5113713;28;20641;-67
2022/05/07 06:54:17;;;;;;;25.45;19.40;;;13.10;99.90;;;;;;5119150;28;20173;-67
2022/05/07 06:56:43;;;;;;;24.65;19.50;;;13.10;99.90;;;;;;5113776;28;20202;-67
2022/05/07 06:59:10;;;;;;;26.73;20.00;;;13.00;99.90;;;;;;5114232;28;20205;-67
2022/05/07 07:01:36;;;;;;;24.95;19.60;;;13.20;99.90;;;;;;5113411;28;20167;-66
2022/05/07 07:04:02;;;;;;;27.92;21.20;;;13.40;99.90;;;;;;5113996;28;20164;-67
2022/05/07 07:06:29;;;;;;;24.98;20.08;;;13.40;99.90;;;;;;5115546;28;20223;-66
2022/05/07 07:08:56;;;;;;;26.67;20.52;;;13.50;99.90;;;;;;5114112;28;20215;-67
2022/05/07 07:11:22;;;;;;;26.13;19.88;;;13.60;99.90;;;;;;5095846;28;20189;-68
2022/05/07 07:13:49;;;;;;;27.77;19.80;;;13.70;99.90;;;;;;5113401;28;20192;-68
2022/05/07 07:16:15;;;;;;;26.48;20.27;;;13.70;99.90;;;;;;5113339;28;20204;-68
2022/05/07 07:18:41;;;;;;;25.45;19.60;;;13.70;99.90;;;;;;5095371;28;20180;-67
2022/05/07 07:21:07;;;;;;;23.50;18.95;;;13.90;99.90;;;;;;5115634;28;20535;-67
2022/05/07 07:23:32;;;;;;;31.08;20.90;;;14.10;99.90;;;;;;5117848;28;20187;-67
2022/05/07 07:25:58;;;;;;;23.98;19.08;;;14.10;99.90;;;;;;5117507;28;20219;-67
2022/05/07 07:28:24;;;;;;;23.98;18.75;;;14.20;99.90;;;;;;5117551;28;20173;-67
2022/05/07 07:30:50;;;;;;;26.05;18.80;;;14.40;99.90;;;;;;5117385;28;20605;-67
2022/05/07 07:33:16;;;;;;;23.05;19.23;;;14.50;99.90;;;;;;5117474;28;20176;-67
2022/05/07 07:35:44;;;;;;;23.63;18.13;;;14.60;99.90;;;;;;5117138;28;20247;-67
2022/05/07 07:38:11;;;;;;;21.67;17.42;;;14.80;99.90;;;;;;5117372;28;20641;-67
2022/05/07 07:40:37;;;;;;;22.90;16.98;;;14.90;99.90;;;;;;5099307;28;20180;-67
2022/05/07 07:43:03;;;;;;;20.73;16.98;;;15.00;99.90;;;;;;5117166;28;20183;-67
2022/05/07 07:48:14;;;;;;;21.17;16.25;;;15.30;99.90;;;;;;5117270;28;20226;-67
2022/05/07 07:50:40;;;;;;;22.27;16.95;;;15.50;99.90;;;;;;5117169;28;20252;-67
2022/05/07 07:53:11;;;;;;;19.98;15.60;;;15.70;99.90;;;;;;5117350;28;20171;-67
2022/05/07 07:55:37;;;;;;;19.75;14.90;;;15.80;99.90;;;;;;5117362;28;20611;-67
2022/05/07 07:58:08;;;;;;;19.85;15.95;;;15.90;99.90;;;;;;5117242;28;20221;-67
2022/05/07 08:00:36;;;;;;;19.60;14.98;;;16.00;99.90;;;;;;5117227;28;20152;-67
2022/05/07 08:03:05;;;;;;;18.15;13.95;;;16.00;99.90;;;;;;5117762;28;20161;-67
2022/05/07 08:05:33;;;;;;;18.70;15.25;;;16.00;99.90;;;;;;5116635;28;20248;-67
2022/05/07 08:13:48;;;;;;;23.63;15.10;;;16.50;99.90;;;;;;5117976;28;20203;-67
2022/05/07 08:16:17;;;;;;;24.45;16.05;;;16.50;99.90;;;;;;5117459;28;20204;-67
2022/05/07 08:18:43;;;;;;;22.92;15.43;;;16.60;99.90;;;;;;5117397;28;20169;-67
2022/05/07 08:21:10;;;;;;;23.25;16.23;;;16.70;99.90;;;;;;5117180;28;20526;-67
2022/05/07 08:23:37;;;;;;;24.20;15.48;;;16.90;99.90;;;;;;5117145;28;20169;-67
2022/05/07 08:26:04;;;;;;;23.45;16.25;;;17.10;99.90;;;;;;5116723;28;20249;-67
2022/05/07 08:28:34;;;;;;;24.20;16.63;;;17.50;99.90;;;;;;5098616;28;20202;-67
2022/05/07 08:31:00;;;;;;;23.27;16.30;;;17.80;99.90;;;;;;5116559;28;20637;-67
2022/05/07 08:33:27;;;;;;;24.38;16.00;;;18.10;99.90;;;;;;5115511;28;20250;-67
2022/05/07 08:35:53;;;;;;;26.38;18.45;;;18.30;99.90;;;;;;5116662;28;20202;-67
2022/05/07 08:38:19;;;;;;;26.13;17.58;;;18.50;99.90;;;;;;5098162;28;20189;-67
2022/05/07 08:40:45;;;;;;;27.00;18.98;;;18.60;99.90;;;;;;5116524;28;20204;-67
2022/05/07 08:43:11;;;;;;;29.85;19.10;;;18.60;99.90;;;;;;5116300;28;20168;-67
2022/05/07 08:45:40;;;;;;;31.80;18.88;;;18.70;99.90;;;;;;5116284;28;20275;-67
2022/05/07 08:48:06;;;;;;;31.02;20.25;;;18.80;99.90;;;;;;5116761;28;20164;-67
2022/05/07 08:50:32;;;;;;;25.77;18.88;;;18.90;99.90;;;;;;5116747;28;20176;-67
2022/05/07 08:52:57;;;;;;;29.20;19.30;;;18.90;99.90;;;;;;5116367;28;20649;-67
2022/05/07 08:55:23;;;;;;;31.70;20.42;;;19.20;99.90;;;;;;5116355;28;20196;-67
2022/05/07 08:57:51;;;;;;;26.25;18.85;;;19.30;99.90;;;;;;5116371;28;20196;-67
2022/05/07 09:00:20;;;;;;;34.47;18.40;;;19.50;99.90;;;;;;5116756;28;20302;-67
2022/05/07 09:02:48;;;;;;;28.90;17.95;;;19.60;99.90;;;;;;5117846;28;20168;-67
2022/05/07 09:05:18;;;;;;;26.50;17.15;;;19.70;99.90;;;;;;5099104;28;20551;-67
2022/05/07 09:08:03;;;;;;;29.92;16.98;;;19.90;99.90;;;;;;5116962;28;20535;-67
2022/05/07 09:10:31;;;;;;;29.50;17.23;;;20.00;99.90;;;;;;5116505;28;20153;-67
2022/05/07 09:13:13;;;;;;;30.05;17.73;;;20.20;99.90;;;;;;5115865;28;20195;-67
2022/05/07 09:15:48;;;;;;;26.98;17.40;;;20.40;99.90;;;;;;5115722;28;20708;-67
2022/05/07 09:18:15;;;;;;;30.40;18.13;;;20.40;99.90;;;;;;5115722;28;20172;-67
2022/05/07 09:20:41;;;;;;;33.63;18.92;;;20.50;99.90;;;;;;5116024;28;20173;-67
2022/05/07 09:23:10;;;;;;;30.38;17.73;;;20.60;99.90;;;;;;5115592;28;20171;-67
2022/05/07 09:25:45;;;;;;;25.98;16.00;;;20.70;99.90;;;;;;5115425;28;20199;-67
2022/05/07 09:28:11;;;;;;;27.67;16.50;;;20.90;99.90;;;;;;5115455;28;20152;-67
2022/05/07 09:30:38;;;;;;;25.45;14.70;;;21.10;99.90;;;;;;5097014;28;20547;-68
2022/05/07 09:33:06;;;;;;;26.70;16.73;;;21.30;99.90;;;;;;5115241;28;20164;-68
2022/05/07 09:35:50;;;;;;;28.67;19.05;;;21.60;99.90;;;;;;5115105;28;20210;-68
2022/05/07 09:38:24;;;;;;;24.90;15.38;;;21.30;99.90;;;;;;5115330;28;20184;-68
2022/05/07 09:40:51;;;;;;;32.40;18.23;;;21.50;99.90;;;;;;5115269;28;20246;-68
2022/05/07 09:43:17;;;;;;;26.00;17.48;;;21.70;99.90;;;;;;5115378;28;20165;-68
2022/05/07 09:45:44;;;;;;;31.67;19.67;;;21.80;99.90;;;;;;5115023;28;20704;-68
2022/05/07 09:48:12;;;;;;;27.25;18.52;;;21.70;99.90;;;;;;5115192;28;20602;-68
2022/05/07 09:58:42;;;;;;;26.00;16.95;;;22.00;99.90;;;;;;5115270;28;20206;-67
2022/05/07 10:01:20;;;;;;;25.88;16.73;;;22.40;99.90;;;;;;5114545;28;20176;-67
2022/05/07 10:04:37;;;;;;;26.65;18.00;;;22.70;99.90;;;;;;5114739;28;20149;-67
2022/05/07 10:07:17;;;;;;;27.50;18.25;;;22.50;99.90;;;;;;5012372;28;20182;-67
2022/05/07 10:10:04;;;;;;;26.92;20.08;;;22.00;99.90;;;;;;4993484;28;20189;-67
2022/05/07 10:12:31;;;;;;;22.88;17.25;;;21.30;99.90;;;;;;5073136;28;20242;-68
2022/05/07 10:15:09;;;;;;;29.95;19.20;;;20.90;99.90;;;;;;5093834;28;20209;-67
2022/05/07 10:17:35;;;;;;;25.92;18.90;;;20.70;99.90;;;;;;5093740;28;20767;-67
2022/05/07 10:20:09;;;;;;;28.15;20.42;;;20.50;99.90;;;;;;5093954;28;20180;-67
2022/05/07 10:22:36;;;;;;;28.83;19.85;;;20.40;99.90;;;;;;5093807;28;20641;-67
2022/05/07 10:25:12;;;;;;;26.35;18.70;;;20.30;99.90;;;;;;5093751;28;20676;-67
2022/05/07 10:27:44;;;;;;;25.95;17.40;;;20.30;99.90;;;;;;5093809;28;20515;-66
2022/05/07 10:30:10;;;;;;;23.33;15.73;;;20.60;99.90;;;;;;5075505;28;20707;-67
2022/05/07 10:32:58;;;;;;;20.60;15.90;;;21.10;99.90;;;;;;5093635;28;20218;-67
2022/05/07 10:35:47;;;;;;;22.00;16.40;;;21.80;99.90;;;;;;5075544;28;20211;-67
2022/05/07 10:38:25;;;;;;;23.95;16.13;;;22.40;99.90;;;;;;5100665;28;20180;-67
2022/05/07 10:41:01;;;;;;;39.28;19.95;;;22.70;99.90;;;;;;5114040;28;20168;-67
2022/05/07 10:43:37;;;;;;;24.98;18.15;;;22.40;99.90;;;;;;5114210;28;20250;-67
2022/05/07 10:46:07;;;;;;;22.38;15.70;;;22.20;99.90;;;;;;5113783;28;20683;-67
2022/05/07 10:48:46;;;;;;;25.08;17.30;;;21.90;99.90;;;;;;5114134;28;20216;-67
2022/05/07 10:51:50;;;;;;;26.65;18.33;;;21.70;99.90;;;;;;5114138;28;20661;-67
2022/05/07 10:54:24;;;;;;;26.17;18.35;;;21.40;99.90;;;;;;5114581;28;20265;-67
2022/05/07 10:56:58;;;;;;;23.60;15.68;;;21.20;99.90;;;;;;5117007;28;20211;-66
2022/05/07 10:59:29;;;;;;;24.73;17.02;;;21.00;99.90;;;;;;5118423;28;20556;-66
2022/05/07 11:02:10;;;;;;;19.42;13.02;;;20.80;99.90;;;;;;5117887;28;20153;-66
2022/05/07 11:04:45;;;;;;;19.58;15.07;;;20.80;99.90;;;;;;5116673;28;20196;-66
2022/05/07 11:07:18;;;;;;;22.75;15.25;;;20.70;99.90;;;;;;5099836;28;20270;-65
2022/05/07 11:09:51;;;;;;;20.08;14.57;;;20.90;99.90;;;;;;5117990;28;20182;-65
2022/05/07 11:12:18;;;;;;;23.50;16.85;;;21.00;99.90;;;;;;5118028;28;20153;-67
2022/05/07 11:14:43;;;;;;;25.48;18.90;;;21.00;99.90;;;;;;5118042;28;20250;-67
2022/05/07 11:17:10;;;;;;;20.48;15.35;;;20.80;99.90;;;;;;5117664;28;20672;-68
2022/05/07 11:19:37;;;;;;;26.20;17.33;;;20.70;99.90;;;;;;5118482;28;20156;-68
2022/05/07 11:22:08;;;;;;;27.63;17.92;;;20.60;99.90;;;;;;5100108;28;20229;-69
2022/05/07 11:24:34;;;;;;;24.60;17.05;;;20.50;99.90;;;;;;5100170;28;20657;-66
2022/05/07 11:27:05;;;;;;;21.33;14.80;;;20.50;99.90;;;;;;5117541;28;20184;-66
2022/05/07 11:29:33;;;;;;;27.90;17.60;;;20.50;99.90;;;;;;5117647;28;20153;-66
2022/05/07 11:32:07;;;;;;;19.90;14.43;;;20.60;99.90;;;;;;5117433;28;20203;-66
2022/05/07 11:34:33;;;;;;;28.48;20.90;;;20.70;99.90;;;;;;5117361;28;20171;-66
2022/05/07 11:37:21;;;;;;;23.85;17.48;;;20.80;99.90;;;;;;5117718;28;20245;-66
2022/05/07 11:39:50;;;;;;;28.83;19.58;;;21.10;99.90;;;;;;5117325;28;20259;-67
2022/05/07 11:42:30;;;;;;;22.58;16.45;;;21.10;99.90;;;;;;5099066;28;20592;-66
2022/05/07 11:48:04;;;;;;;23.02;16.90;;;21.20;99.90;;;;;;5117755;28;20176;-66
2022/05/07 11:50:41;;;;;;;22.88;16.45;;;21.00;99.90;;;;;;5117176;28;20177;-67
2022/05/07 11:53:12;;;;;;;28.13;19.23;;;20.80;99.90;;;;;;5117917;28;20163;-67
2022/05/07 11:55:38;;;;;;;23.02;15.70;;;20.70;99.90;;;;;;5117407;28;20198;-67
2022/05/07 11:58:13;;;;;;;25.00;16.73;;;20.70;99.90;;;;;;5117596;28;20188;-67
2022/05/07 12:00:43;;;;;;;25.98;16.98;;;20.70;99.90;;;;;;5099515;28;20176;-67
2022/05/07 12:03:09;;;;;;;25.50;17.67;;;20.70;99.90;;;;;;5117608;28;20272;-69
2022/05/07 12:05:42;;;;;;;25.80;17.27;;;20.70;99.90;;;;;;5117706;28;20664;-67
2022/05/07 12:08:34;;;;;;;28.15;17.77;;;20.90;99.90;;;;;;5110891;28;20188;-66
2022/05/07 12:11:00;;;;;;;26.80;18.85;;;21.10;99.90;;;;;;5078471;28;20166;-68
2022/05/07 12:13:27;;;;;;;27.95;19.10;;;21.50;99.90;;;;;;5096792;28;20263;-68
2022/05/07 12:18:41;;;;;;;28.30;20.20;;;22.00;99.90;;;;;;5097055;28;20649;-68
2022/05/07 12:21:07;;;;;;;33.90;20.65;;;22.30;99.90;;;;;;5096375;28;20244;-68
2022/05/07 12:31:47;;;;;;;24.85;18.05;;;22.90;99.90;;;;;;5096282;28;20180;-66
2022/05/07 12:34:13;;;;;;;28.77;18.92;;;23.20;99.90;;;;;;5095951;28;20642;-66
2022/05/07 12:36:38;;;;;;;27.85;18.63;;;23.80;99.90;;;;;;5077590;28;20213;-66
2022/05/07 12:39:04;;;;;;;27.25;18.10;;;23.70;99.90;;;;;;5110181;28;20230;-66
2022/05/07 12:41:30;;;;;;;29.67;21.85;;;23.70;99.90;;;;;;5116493;28;20173;-66
2022/05/07 12:43:58;;;;;;;30.40;21.52;;;23.40;99.50;;;;;;5097870;28;20629;-66
2022/05/07 12:46:25;;;;;;;27.25;19.45;;;22.90;99.90;;;;;;5115934;28;20279;-66
2022/05/07 12:48:51;;;;;;;24.55;17.70;;;22.40;99.90;;;;;;5116379;28;20199;-66
2022/05/07 12:51:18;;;;;;;25.27;17.23;;;22.00;99.90;;;;;;5116107;28;20280;-65
2022/05/07 12:53:43;;;;;;;21.50;17.25;;;21.90;99.90;;;;;;5116292;28;20668;-66
2022/05/07 12:56:09;;;;;;;25.73;17.63;;;21.70;99.90;;;;;;5115978;28;20299;-65
2022/05/07 12:58:35;;;;;;;27.50;19.63;;;21.50;99.90;;;;;;5116418;28;20198;-65
2022/05/07 13:01:02;;;;;;;26.50;19.48;;;21.30;99.90;;;;;;5115788;28;20218;-66
2022/05/07 13:03:28;;;;;;;28.63;21.80;;;21.10;99.90;;;;;;5097565;28;20204;-70
2022/05/07 13:05:53;;;;;;;29.42;21.98;;;20.80;99.90;;;;;;5097472;28;20253;-66
2022/05/07 13:08:20;;;;;;;27.25;20.00;;;20.60;99.90;;;;;;5116138;28;20225;-66
2022/05/07 13:10:46;;;;;;;27.27;18.67;;;20.30;99.90;;;;;;5114513;28;20221;-66